sensor_id;sensor_type;location;lat;lon;timestamp;P1;durP1;ratioP1;P2;durP2;ratioP2
18239;SDS011;9244;50.828;4.718;2023-07-13T00:01:50;5.45;;;1.67;;
18239;SDS011;9244;50.828;4.718;2023-07-13T00:04:17;5.00;;;1.50;;
18239;SDS011;9244;50.828;4.718;2023-07-13T00:06:44;7.28;;;1.95;;
18239;SDS011;9244;50.828;4.718;2023-07-13T00:09:16;3.83;;;2.17;;
18239;SDS011;9244;50.828;4.718;2023-07-13T00:11:43;2.90;;;1.45;;
18239;SDS011;9244;50.828;4.718;2023-07-13T00:14:10;5.40;;;2.07;;
18239;SDS011;9244;50.828;4.718;2023-07-13T00:16:37;3.73;;;1.77;;
18239;SDS011;9244;50.828;4.718;2023-07-13T00:19:04;5.90;;;1.80;;
18239;SDS011;9244;50.828;4.718;2023-07-13T00:21:30;4.20;;;1.50;;
18239;SDS011;9244;50.828;4.718;2023-07-13T00:23:56;4.57;;;2.10;;
18239;SDS011;9244;50.828;4.718;2023-07-13T00:26:22;5.43;;;1.70;;
18239;SDS011;9244;50.828;4.718;2023-07-13T00:28:47;5.57;;;2.03;;
18239;SDS011;9244;50.828;4.718;2023-07-13T00:31:13;4.53;;;1.77;;
18239;SDS011;9244;50.828;4.718;2023-07-13T00:33:39;7.87;;;1.70;;
18239;SDS011;9244;50.828;4.718;2023-07-13T00:36:06;4.17;;;1.90;;
18239;SDS011;9244;50.828;4.718;2023-07-13T00:38:32;4.43;;;2.42;;
18239;SDS011;9244;50.828;4.718;2023-07-13T00:40:57;12.87;;;2.53;;
18239;SDS011;9244;50.828;4.718;2023-07-13T00:43:26;4.80;;;2.13;;
18239;SDS011;9244;50.828;4.718;2023-07-13T00:48:22;6.70;;;2.10;;
18239;SDS011;9244;50.828;4.718;2023-07-13T00:50:53;5.87;;;2.13;;
18239;SDS011;9244;50.828;4.718;2023-07-13T00:53:22;5.43;;;1.80;;
18239;SDS011;9244;50.828;4.718;2023-07-13T00:55:51;5.53;;;2.10;;
18239;SDS011;9244;50.828;4.718;2023-07-13T00:58:20;6.18;;;2.15;;
18239;SDS011;9244;50.828;4.718;2023-07-13T01:00:45;7.07;;;2.27;;
18239;SDS011;9244;50.828;4.718;2023-07-13T01:03:13;6.17;;;2.00;;
18239;SDS011;9244;50.828;4.718;2023-07-13T01:05:39;5.23;;;2.00;;
18239;SDS011;9244;50.828;4.718;2023-07-13T01:08:05;6.70;;;1.90;;
18239;SDS011;9244;50.828;4.718;2023-07-13T01:10:31;7.57;;;2.07;;
18239;SDS011;9244;50.828;4.718;2023-07-13T01:13:04;4.73;;;2.20;;
18239;SDS011;9244;50.828;4.718;2023-07-13T01:18:02;5.47;;;2.33;;
18239;SDS011;9244;50.828;4.718;2023-07-13T01:20:29;2.07;;;1.37;;
18239;SDS011;9244;50.828;4.718;2023-07-13T01:22:55;6.47;;;1.60;;
18239;SDS011;9244;50.828;4.718;2023-07-13T01:25:20;6.27;;;2.10;;
18239;SDS011;9244;50.828;4.718;2023-07-13T01:27:46;8.53;;;2.10;;
18239;SDS011;9244;50.828;4.718;2023-07-13T01:30:12;5.17;;;1.97;;
18239;SDS011;9244;50.828;4.718;2023-07-13T01:32:38;4.17;;;1.80;;
18239;SDS011;9244;50.828;4.718;2023-07-13T01:35:06;5.17;;;2.30;;
18239;SDS011;9244;50.828;4.718;2023-07-13T01:37:32;6.00;;;2.37;;
18239;SDS011;9244;50.828;4.718;2023-07-13T01:40:01;4.53;;;2.40;;
18239;SDS011;9244;50.828;4.718;2023-07-13T01:42:28;5.33;;;1.90;;
18239;SDS011;9244;50.828;4.718;2023-07-13T01:44:54;10.03;;;2.10;;
18239;SDS011;9244;50.828;4.718;2023-07-13T01:47:20;8.13;;;2.57;;
18239;SDS011;9244;50.828;4.718;2023-07-13T01:49:45;5.40;;;2.43;;
18239;SDS011;9244;50.828;4.718;2023-07-13T01:52:12;8.47;;;2.40;;
18239;SDS011;9244;50.828;4.718;2023-07-13T01:54:38;9.53;;;2.37;;
18239;SDS011;9244;50.828;4.718;2023-07-13T01:57:03;10.63;;;2.47;;
18239;SDS011;9244;50.828;4.718;2023-07-13T01:59:29;5.97;;;2.30;;
18239;SDS011;9244;50.828;4.718;2023-07-13T02:01:55;6.97;;;3.10;;
18239;SDS011;9244;50.828;4.718;2023-07-13T02:04:20;5.37;;;2.17;;
18239;SDS011;9244;50.828;4.718;2023-07-13T02:06:46;6.53;;;2.53;;
18239;SDS011;9244;50.828;4.718;2023-07-13T02:09:12;8.20;;;2.57;;
18239;SDS011;9244;50.828;4.718;2023-07-13T02:11:37;5.30;;;2.70;;
18239;SDS011;9244;50.828;4.718;2023-07-13T02:14:03;5.60;;;2.57;;
18239;SDS011;9244;50.828;4.718;2023-07-13T02:16:29;7.23;;;2.73;;
18239;SDS011;9244;50.828;4.718;2023-07-13T02:18:55;7.37;;;2.60;;
18239;SDS011;9244;50.828;4.718;2023-07-13T02:21:21;5.53;;;2.80;;
18239;SDS011;9244;50.828;4.718;2023-07-13T02:23:48;8.13;;;2.53;;
18239;SDS011;9244;50.828;4.718;2023-07-13T02:26:14;8.80;;;3.10;;
18239;SDS011;9244;50.828;4.718;2023-07-13T02:28:40;5.83;;;2.47;;
18239;SDS011;9244;50.828;4.718;2023-07-13T02:31:09;7.27;;;2.43;;
18239;SDS011;9244;50.828;4.718;2023-07-13T02:33:37;7.57;;;2.40;;
18239;SDS011;9244;50.828;4.718;2023-07-13T02:36:03;4.83;;;2.60;;
18239;SDS011;9244;50.828;4.718;2023-07-13T02:38:30;4.47;;;2.00;;
18239;SDS011;9244;50.828;4.718;2023-07-13T02:40:58;4.43;;;2.13;;
18239;SDS011;9244;50.828;4.718;2023-07-13T02:43:24;7.07;;;2.20;;
18239;SDS011;9244;50.828;4.718;2023-07-13T02:45:50;6.10;;;2.13;;
18239;SDS011;9244;50.828;4.718;2023-07-13T02:48:16;8.07;;;2.20;;
18239;SDS011;9244;50.828;4.718;2023-07-13T02:50:42;7.13;;;2.40;;
18239;SDS011;9244;50.828;4.718;2023-07-13T02:53:08;5.97;;;2.70;;
18239;SDS011;9244;50.828;4.718;2023-07-13T02:55:34;8.97;;;3.00;;
18239;SDS011;9244;50.828;4.718;2023-07-13T02:58:00;7.23;;;3.00;;
18239;SDS011;9244;50.828;4.718;2023-07-13T03:00:26;8.00;;;2.53;;
18239;SDS011;9244;50.828;4.718;2023-07-13T03:02:52;6.83;;;2.53;;
18239;SDS011;9244;50.828;4.718;2023-07-13T03:05:21;7.87;;;3.27;;
18239;SDS011;9244;50.828;4.718;2023-07-13T03:07:47;7.53;;;2.60;;
18239;SDS011;9244;50.828;4.718;2023-07-13T03:10:13;7.53;;;2.60;;
18239;SDS011;9244;50.828;4.718;2023-07-13T03:12:39;8.20;;;2.53;;
18239;SDS011;9244;50.828;4.718;2023-07-13T03:15:05;8.20;;;2.60;;
18239;SDS011;9244;50.828;4.718;2023-07-13T03:17:31;6.13;;;2.70;;
18239;SDS011;9244;50.828;4.718;2023-07-13T03:19:56;7.60;;;2.40;;
18239;SDS011;9244;50.828;4.718;2023-07-13T03:22:22;5.47;;;3.13;;
18239;SDS011;9244;50.828;4.718;2023-07-13T03:24:48;3.83;;;2.20;;
18239;SDS011;9244;50.828;4.718;2023-07-13T03:27:13;9.63;;;2.67;;
18239;SDS011;9244;50.828;4.718;2023-07-13T03:29:40;6.87;;;2.80;;
18239;SDS011;9244;50.828;4.718;2023-07-13T03:32:06;6.80;;;3.00;;
18239;SDS011;9244;50.828;4.718;2023-07-13T03:34:32;3.57;;;2.37;;
18239;SDS011;9244;50.828;4.718;2023-07-13T03:36:57;7.07;;;2.17;;
18239;SDS011;9244;50.828;4.718;2023-07-13T03:39:23;9.43;;;2.50;;
18239;SDS011;9244;50.828;4.718;2023-07-13T03:41:48;7.40;;;2.83;;
18239;SDS011;9244;50.828;4.718;2023-07-13T03:44:18;8.67;;;3.23;;
18239;SDS011;9244;50.828;4.718;2023-07-13T03:46:44;10.77;;;3.30;;
18239;SDS011;9244;50.828;4.718;2023-07-13T03:49:10;7.87;;;3.07;;
18239;SDS011;9244;50.828;4.718;2023-07-13T03:51:36;6.57;;;2.57;;
18239;SDS011;9244;50.828;4.718;2023-07-13T03:54:02;8.90;;;2.63;;
18239;SDS011;9244;50.828;4.718;2023-07-13T03:56:28;8.90;;;3.13;;
18239;SDS011;9244;50.828;4.718;2023-07-13T03:58:53;7.60;;;2.67;;
18239;SDS011;9244;50.828;4.718;2023-07-13T04:01:19;6.83;;;3.00;;
18239;SDS011;9244;50.828;4.718;2023-07-13T04:03:46;6.13;;;2.77;;
18239;SDS011;9244;50.828;4.718;2023-07-13T04:06:16;6.13;;;3.27;;
18239;SDS011;9244;50.828;4.718;2023-07-13T04:08:49;9.30;;;3.00;;
18239;SDS011;9244;50.828;4.718;2023-07-13T04:11:21;8.03;;;2.70;;
18239;SDS011;9244;50.828;4.718;2023-07-13T04:13:48;11.90;;;4.50;;
18239;SDS011;9244;50.828;4.718;2023-07-13T04:16:15;5.93;;;2.50;;
18239;SDS011;9244;50.828;4.718;2023-07-13T04:18:41;9.67;;;3.20;;
18239;SDS011;9244;50.828;4.718;2023-07-13T04:21:07;6.37;;;2.60;;
18239;SDS011;9244;50.828;4.718;2023-07-13T04:23:34;8.43;;;2.73;;
18239;SDS011;9244;50.828;4.718;2023-07-13T04:26:00;6.13;;;3.03;;
18239;SDS011;9244;50.828;4.718;2023-07-13T04:28:26;7.87;;;2.80;;
18239;SDS011;9244;50.828;4.718;2023-07-13T04:30:52;5.20;;;2.90;;
18239;SDS011;9244;50.828;4.718;2023-07-13T04:33:18;9.43;;;3.27;;
18239;SDS011;9244;50.828;4.718;2023-07-13T04:35:47;7.30;;;3.37;;
18239;SDS011;9244;50.828;4.718;2023-07-13T04:38:13;12.20;;;3.10;;
18239;SDS011;9244;50.828;4.718;2023-07-13T04:40:42;9.80;;;3.47;;
18239;SDS011;9244;50.828;4.718;2023-07-13T04:43:09;11.30;;;3.20;;
18239;SDS011;9244;50.828;4.718;2023-07-13T04:45:36;8.80;;;3.47;;
18239;SDS011;9244;50.828;4.718;2023-07-13T04:48:02;6.17;;;2.90;;
18239;SDS011;9244;50.828;4.718;2023-07-13T04:50:27;8.83;;;2.97;;
18239;SDS011;9244;50.828;4.718;2023-07-13T04:52:54;7.07;;;2.50;;
18239;SDS011;9244;50.828;4.718;2023-07-13T04:55:20;8.73;;;3.17;;
18239;SDS011;9244;50.828;4.718;2023-07-13T04:57:46;5.30;;;2.70;;
18239;SDS011;9244;50.828;4.718;2023-07-13T05:00:12;9.43;;;3.23;;
18239;SDS011;9244;50.828;4.718;2023-07-13T05:02:40;8.63;;;2.90;;
18239;SDS011;9244;50.828;4.718;2023-07-13T05:05:08;8.47;;;2.90;;
18239;SDS011;9244;50.828;4.718;2023-07-13T05:07:34;8.10;;;2.87;;
18239;SDS011;9244;50.828;4.718;2023-07-13T05:10:00;6.10;;;2.83;;
18239;SDS011;9244;50.828;4.718;2023-07-13T05:12:26;6.70;;;3.10;;
18239;SDS011;9244;50.828;4.718;2023-07-13T05:14:52;10.00;;;2.80;;
18239;SDS011;9244;50.828;4.718;2023-07-13T05:17:17;12.20;;;4.00;;
18239;SDS011;9244;50.828;4.718;2023-07-13T05:19:43;6.80;;;2.77;;
18239;SDS011;9244;50.828;4.718;2023-07-13T05:22:09;9.80;;;3.22;;
18239;SDS011;9244;50.828;4.718;2023-07-13T05:24:34;7.53;;;2.93;;
18239;SDS011;9244;50.828;4.718;2023-07-13T05:27:00;8.77;;;3.10;;
18239;SDS011;9244;50.828;4.718;2023-07-13T05:29:25;9.40;;;2.83;;
18239;SDS011;9244;50.828;4.718;2023-07-13T05:31:51;8.67;;;3.33;;
18239;SDS011;9244;50.828;4.718;2023-07-13T05:34:17;5.90;;;2.57;;
18239;SDS011;9244;50.828;4.718;2023-07-13T05:36:42;9.17;;;3.17;;
18239;SDS011;9244;50.828;4.718;2023-07-13T05:39:08;10.63;;;3.43;;
18239;SDS011;9244;50.828;4.718;2023-07-13T05:41:35;9.27;;;2.80;;
18239;SDS011;9244;50.828;4.718;2023-07-13T05:44:01;8.37;;;3.07;;
18239;SDS011;9244;50.828;4.718;2023-07-13T05:46:26;5.20;;;2.40;;
18239;SDS011;9244;50.828;4.718;2023-07-13T05:48:53;10.38;;;3.03;;
18239;SDS011;9244;50.828;4.718;2023-07-13T05:51:18;9.27;;;2.70;;
18239;SDS011;9244;50.828;4.718;2023-07-13T05:53:44;6.85;;;2.88;;
18239;SDS011;9244;50.828;4.718;2023-07-13T05:56:09;8.48;;;3.10;;
18239;SDS011;9244;50.828;4.718;2023-07-13T05:58:36;8.45;;;3.00;;
18239;SDS011;9244;50.828;4.718;2023-07-13T06:01:06;8.98;;;3.58;;
18239;SDS011;9244;50.828;4.718;2023-07-13T06:03:34;9.65;;;2.95;;
18239;SDS011;9244;50.828;4.718;2023-07-13T06:06:00;8.75;;;3.10;;
18239;SDS011;9244;50.828;4.718;2023-07-13T06:08:26;9.85;;;2.75;;
18239;SDS011;9244;50.828;4.718;2023-07-13T06:10:53;9.98;;;3.22;;
18239;SDS011;9244;50.828;4.718;2023-07-13T06:13:18;9.40;;;3.08;;
18239;SDS011;9244;50.828;4.718;2023-07-13T06:15:50;11.37;;;3.27;;
18239;SDS011;9244;50.828;4.718;2023-07-13T06:18:16;11.25;;;3.83;;
18239;SDS011;9244;50.828;4.718;2023-07-13T06:20:41;9.77;;;3.13;;
18239;SDS011;9244;50.828;4.718;2023-07-13T06:23:07;7.40;;;3.50;;
18239;SDS011;9244;50.828;4.718;2023-07-13T06:25:32;9.90;;;3.35;;
18239;SDS011;9244;50.828;4.718;2023-07-13T06:27:58;10.63;;;3.53;;
18239;SDS011;9244;50.828;4.718;2023-07-13T06:30:24;10.13;;;3.17;;
18239;SDS011;9244;50.828;4.718;2023-07-13T06:32:49;8.90;;;3.00;;
18239;SDS011;9244;50.828;4.718;2023-07-13T06:35:15;6.95;;;3.10;;
18239;SDS011;9244;50.828;4.718;2023-07-13T06:37:41;10.48;;;3.67;;
18239;SDS011;9244;50.828;4.718;2023-07-13T06:40:07;8.02;;;2.85;;
18239;SDS011;9244;50.828;4.718;2023-07-13T06:42:33;9.75;;;3.20;;
18239;SDS011;9244;50.828;4.718;2023-07-13T06:44:58;8.73;;;2.88;;
18239;SDS011;9244;50.828;4.718;2023-07-13T06:47:24;7.22;;;2.95;;
18239;SDS011;9244;50.828;4.718;2023-07-13T06:49:50;7.47;;;2.88;;
18239;SDS011;9244;50.828;4.718;2023-07-13T06:52:15;10.00;;;3.17;;
18239;SDS011;9244;50.828;4.718;2023-07-13T06:54:41;11.52;;;3.40;;
18239;SDS011;9244;50.828;4.718;2023-07-13T06:57:06;11.05;;;3.28;;
18239;SDS011;9244;50.828;4.718;2023-07-13T06:59:32;10.68;;;3.92;;
18239;SDS011;9244;50.828;4.718;2023-07-13T07:01:58;8.48;;;3.25;;
18239;SDS011;9244;50.828;4.718;2023-07-13T07:04:23;8.43;;;3.65;;
18239;SDS011;9244;50.828;4.718;2023-07-13T07:06:49;8.88;;;2.75;;
18239;SDS011;9244;50.828;4.718;2023-07-13T07:09:15;7.43;;;2.88;;
18239;SDS011;9244;50.828;4.718;2023-07-13T07:11:41;7.90;;;3.20;;
18239;SDS011;9244;50.828;4.718;2023-07-13T07:14:07;9.45;;;3.28;;
18239;SDS011;9244;50.828;4.718;2023-07-13T07:16:33;8.90;;;3.33;;
18239;SDS011;9244;50.828;4.718;2023-07-13T07:18:58;9.82;;;3.30;;
18239;SDS011;9244;50.828;4.718;2023-07-13T07:21:24;12.43;;;3.58;;
18239;SDS011;9244;50.828;4.718;2023-07-13T07:23:51;9.38;;;3.70;;
18239;SDS011;9244;50.828;4.718;2023-07-13T07:26:17;10.48;;;3.15;;
18239;SDS011;9244;50.828;4.718;2023-07-13T07:28:43;10.30;;;3.17;;
18239;SDS011;9244;50.828;4.718;2023-07-13T07:31:08;7.78;;;3.17;;
18239;SDS011;9244;50.828;4.718;2023-07-13T07:33:34;6.55;;;2.40;;
18239;SDS011;9244;50.828;4.718;2023-07-13T07:36:00;11.88;;;3.63;;
18239;SDS011;9244;50.828;4.718;2023-07-13T07:38:27;8.23;;;3.08;;
18239;SDS011;9244;50.828;4.718;2023-07-13T07:40:52;9.30;;;2.83;;
18239;SDS011;9244;50.828;4.718;2023-07-13T07:43:18;9.88;;;3.17;;
18239;SDS011;9244;50.828;4.718;2023-07-13T07:45:44;6.70;;;2.97;;
18239;SDS011;9244;50.828;4.718;2023-07-13T07:48:10;7.78;;;2.80;;
18239;SDS011;9244;50.828;4.718;2023-07-13T07:50:36;6.28;;;2.60;;
18239;SDS011;9244;50.828;4.718;2023-07-13T07:53:02;6.70;;;2.45;;
18239;SDS011;9244;50.828;4.718;2023-07-13T07:55:28;7.63;;;2.50;;
18239;SDS011;9244;50.828;4.718;2023-07-13T07:57:55;5.45;;;2.40;;
18239;SDS011;9244;50.828;4.718;2023-07-13T08:00:22;8.00;;;3.17;;
18239;SDS011;9244;50.828;4.718;2023-07-13T08:02:48;6.85;;;3.08;;
18239;SDS011;9244;50.828;4.718;2023-07-13T08:05:13;10.60;;;3.28;;
18239;SDS011;9244;50.828;4.718;2023-07-13T08:07:39;11.52;;;3.53;;
18239;SDS011;9244;50.828;4.718;2023-07-13T08:10:05;8.50;;;2.92;;
18239;SDS011;9244;50.828;4.718;2023-07-13T08:12:35;12.00;;;3.70;;
18239;SDS011;9244;50.828;4.718;2023-07-13T08:15:02;12.63;;;3.22;;
18239;SDS011;9244;50.828;4.718;2023-07-13T08:17:29;7.28;;;2.83;;
18239;SDS011;9244;50.828;4.718;2023-07-13T08:19:54;7.25;;;2.70;;
18239;SDS011;9244;50.828;4.718;2023-07-13T08:22:20;9.57;;;3.40;;
18239;SDS011;9244;50.828;4.718;2023-07-13T08:24:46;9.15;;;3.10;;
18239;SDS011;9244;50.828;4.718;2023-07-13T08:27:12;11.00;;;3.30;;
18239;SDS011;9244;50.828;4.718;2023-07-13T08:29:38;8.30;;;2.70;;
18239;SDS011;9244;50.828;4.718;2023-07-13T08:32:04;9.73;;;2.95;;
18239;SDS011;9244;50.828;4.718;2023-07-13T08:34:32;7.95;;;2.70;;
18239;SDS011;9244;50.828;4.718;2023-07-13T08:36:57;8.27;;;3.20;;
18239;SDS011;9244;50.828;4.718;2023-07-13T08:39:23;7.97;;;2.88;;
18239;SDS011;9244;50.828;4.718;2023-07-13T08:41:50;6.85;;;2.80;;
18239;SDS011;9244;50.828;4.718;2023-07-13T08:47:19;8.60;;;2.45;;
18239;SDS011;9244;50.828;4.718;2023-07-13T08:49:48;7.80;;;2.42;;
18239;SDS011;9244;50.828;4.718;2023-07-13T08:55:01;5.78;;;2.45;;
18239;SDS011;9244;50.828;4.718;2023-07-13T08:57:38;7.95;;;2.75;;
18239;SDS011;9244;50.828;4.718;2023-07-13T09:00:08;5.22;;;1.90;;
18239;SDS011;9244;50.828;4.718;2023-07-13T09:02:41;6.90;;;2.28;;
18239;SDS011;9244;50.828;4.718;2023-07-13T09:05:19;7.72;;;2.70;;
18239;SDS011;9244;50.828;4.718;2023-07-13T09:10:43;5.70;;;1.92;;
18239;SDS011;9244;50.828;4.718;2023-07-13T09:16:02;5.47;;;2.13;;
18239;SDS011;9244;50.828;4.718;2023-07-13T09:18:36;2.80;;;1.65;;
18239;SDS011;9244;50.828;4.718;2023-07-13T09:21:13;5.38;;;2.00;;
18239;SDS011;9244;50.828;4.718;2023-07-13T09:23:42;5.35;;;2.15;;
18239;SDS011;9244;50.828;4.718;2023-07-13T09:26:13;4.88;;;1.95;;
18239;SDS011;9244;50.828;4.718;2023-07-13T09:28:43;5.97;;;2.08;;
18239;SDS011;9244;50.828;4.718;2023-07-13T09:31:19;4.38;;;2.10;;
18239;SDS011;9244;50.828;4.718;2023-07-13T09:33:51;4.57;;;2.20;;
18239;SDS011;9244;50.828;4.718;2023-07-13T09:38:45;7.20;;;2.50;;
18239;SDS011;9244;50.828;4.718;2023-07-13T09:46:43;8.95;;;2.40;;
18239;SDS011;9244;50.828;4.718;2023-07-13T09:49:11;7.18;;;2.13;;
18239;SDS011;9244;50.828;4.718;2023-07-13T09:51:37;5.25;;;2.13;;
18239;SDS011;9244;50.828;4.718;2023-07-13T09:54:08;6.15;;;1.95;;
18239;SDS011;9244;50.828;4.718;2023-07-13T09:56:44;5.05;;;1.98;;
18239;SDS011;9244;50.828;4.718;2023-07-13T09:59:19;2.60;;;1.52;;
18239;SDS011;9244;50.828;4.718;2023-07-13T10:01:45;7.13;;;2.10;;
18239;SDS011;9244;50.828;4.718;2023-07-13T10:04:13;5.18;;;1.70;;
18239;SDS011;9244;50.828;4.718;2023-07-13T10:06:43;6.63;;;2.38;;
18239;SDS011;9244;50.828;4.718;2023-07-13T10:09:10;5.43;;;2.17;;
18239;SDS011;9244;50.828;4.718;2023-07-13T10:11:40;8.25;;;1.75;;
18239;SDS011;9244;50.828;4.718;2023-07-13T10:14:13;4.53;;;2.00;;
18239;SDS011;9244;50.828;4.718;2023-07-13T10:16:42;4.20;;;2.08;;
18239;SDS011;9244;50.828;4.718;2023-07-13T10:19:19;4.30;;;2.08;;
18239;SDS011;9244;50.828;4.718;2023-07-13T10:24:18;3.00;;;1.60;;
18239;SDS011;9244;50.828;4.718;2023-07-13T10:26:49;3.85;;;1.60;;
18239;SDS011;9244;50.828;4.718;2023-07-13T10:29:32;4.65;;;2.15;;
18239;SDS011;9244;50.828;4.718;2023-07-13T10:32:03;3.47;;;1.95;;
18239;SDS011;9244;50.828;4.718;2023-07-13T10:34:36;4.88;;;1.90;;
18239;SDS011;9244;50.828;4.718;2023-07-13T10:37:02;4.38;;;1.85;;
18239;SDS011;9244;50.828;4.718;2023-07-13T10:39:30;5.93;;;1.48;;
18239;SDS011;9244;50.828;4.718;2023-07-13T10:42:00;4.40;;;1.40;;
18239;SDS011;9244;50.828;4.718;2023-07-13T10:44:31;3.67;;;1.60;;
18239;SDS011;9244;50.828;4.718;2023-07-13T10:47:01;2.45;;;1.52;;
18239;SDS011;9244;50.828;4.718;2023-07-13T10:49:31;4.65;;;1.65;;
18239;SDS011;9244;50.828;4.718;2023-07-13T10:51:58;3.28;;;1.60;;
18239;SDS011;9244;50.828;4.718;2023-07-13T10:54:30;6.47;;;1.58;;
18239;SDS011;9244;50.828;4.718;2023-07-13T11:00:14;4.35;;;1.77;;
18239;SDS011;9244;50.828;4.718;2023-07-13T11:02:42;5.65;;;1.60;;
18239;SDS011;9244;50.828;4.718;2023-07-13T11:05:25;3.85;;;1.67;;
18239;SDS011;9244;50.828;4.718;2023-07-13T11:11:02;4.65;;;1.58;;
18239;SDS011;9244;50.828;4.718;2023-07-13T11:13:38;2.75;;;1.20;;
18239;SDS011;9244;50.828;4.718;2023-07-13T11:16:28;3.75;;;1.50;;
18239;SDS011;9244;50.828;4.718;2023-07-13T11:21:33;5.43;;;1.60;;
18239;SDS011;9244;50.828;4.718;2023-07-13T11:31:56;2.97;;;1.08;;
18239;SDS011;9244;50.828;4.718;2023-07-13T11:34:28;4.25;;;1.70;;
18239;SDS011;9244;50.828;4.718;2023-07-13T11:36:59;3.30;;;1.30;;
18239;SDS011;9244;50.828;4.718;2023-07-13T11:39:29;2.95;;;1.65;;
18239;SDS011;9244;50.828;4.718;2023-07-13T11:42:01;6.60;;;1.67;;
18239;SDS011;9244;50.828;4.718;2023-07-13T11:44:32;4.05;;;1.40;;
18239;SDS011;9244;50.828;4.718;2023-07-13T11:47:00;3.35;;;1.38;;
18239;SDS011;9244;50.828;4.718;2023-07-13T11:49:43;2.75;;;1.23;;
18239;SDS011;9244;50.828;4.718;2023-07-13T11:52:14;4.05;;;1.60;;
18239;SDS011;9244;50.828;4.718;2023-07-13T11:54:46;2.75;;;1.45;;
18239;SDS011;9244;50.828;4.718;2023-07-13T11:57:24;2.70;;;1.15;;
18239;SDS011;9244;50.828;4.718;2023-07-13T11:59:54;3.40;;;1.40;;
18239;SDS011;9244;50.828;4.718;2023-07-13T12:04:52;3.10;;;1.35;;
18239;SDS011;9244;50.828;4.718;2023-07-13T12:07:18;3.70;;;1.60;;
18239;SDS011;9244;50.828;4.718;2023-07-13T12:09:44;3.72;;;1.08;;
18239;SDS011;9244;50.828;4.718;2023-07-13T12:12:14;3.80;;;1.30;;
18239;SDS011;9244;50.828;4.718;2023-07-13T12:14:43;3.17;;;1.35;;
18239;SDS011;9244;50.828;4.718;2023-07-13T12:17:15;4.88;;;1.40;;
18239;SDS011;9244;50.828;4.718;2023-07-13T12:19:47;3.53;;;1.40;;
18239;SDS011;9244;50.828;4.718;2023-07-13T12:22:14;3.67;;;1.52;;
18239;SDS011;9244;50.828;4.718;2023-07-13T12:24:41;3.17;;;1.33;;
18239;SDS011;9244;50.828;4.718;2023-07-13T12:29:51;2.95;;;1.60;;
18239;SDS011;9244;50.828;4.718;2023-07-13T12:32:30;3.05;;;1.25;;
18239;SDS011;9244;50.828;4.718;2023-07-13T12:35:15;3.15;;;1.20;;
18239;SDS011;9244;50.828;4.718;2023-07-13T12:37:44;2.53;;;1.10;;
18239;SDS011;9244;50.828;4.718;2023-07-13T12:40:19;3.10;;;1.15;;
18239;SDS011;9244;50.828;4.718;2023-07-13T12:42:47;1.30;;;1.00;;
18239;SDS011;9244;50.828;4.718;2023-07-13T12:45:19;3.22;;;1.30;;
18239;SDS011;9244;50.828;4.718;2023-07-13T12:47:47;6.55;;;1.52;;
18239;SDS011;9244;50.828;4.718;2023-07-13T12:50:19;2.38;;;1.10;;
18239;SDS011;9244;50.828;4.718;2023-07-13T12:52:53;2.42;;;1.13;;
18239;SDS011;9244;50.828;4.718;2023-07-13T12:55:21;2.50;;;1.33;;
18239;SDS011;9244;50.828;4.718;2023-07-13T12:57:54;3.70;;;1.42;;
18239;SDS011;9244;50.828;4.718;2023-07-13T13:00:26;4.53;;;1.10;;
18239;SDS011;9244;50.828;4.718;2023-07-13T13:02:54;1.88;;;1.42;;
18239;SDS011;9244;50.828;4.718;2023-07-13T13:05:22;3.20;;;1.45;;
18239;SDS011;9244;50.828;4.718;2023-07-13T13:07:51;2.67;;;1.23;;
18239;SDS011;9244;50.828;4.718;2023-07-13T13:10:17;3.40;;;1.60;;
18239;SDS011;9244;50.828;4.718;2023-07-13T13:12:43;2.50;;;1.33;;
18239;SDS011;9244;50.828;4.718;2023-07-13T13:15:09;1.80;;;1.33;;
18239;SDS011;9244;50.828;4.718;2023-07-13T13:17:36;1.80;;;1.20;;
18239;SDS011;9244;50.828;4.718;2023-07-13T13:20:19;3.13;;;1.40;;
18239;SDS011;9244;50.828;4.718;2023-07-13T13:22:46;1.88;;;1.10;;
18239;SDS011;9244;50.828;4.718;2023-07-13T13:25:12;2.22;;;1.08;;
18239;SDS011;9244;50.828;4.718;2023-07-13T13:27:43;1.63;;;1.23;;
18239;SDS011;9244;50.828;4.718;2023-07-13T13:30:10;2.80;;;1.17;;
18239;SDS011;9244;50.828;4.718;2023-07-13T13:32:38;1.83;;;1.20;;
18239;SDS011;9244;50.828;4.718;2023-07-13T13:35:18;3.35;;;1.42;;
18239;SDS011;9244;50.828;4.718;2023-07-13T13:37:45;4.95;;;1.38;;
18239;SDS011;9244;50.828;4.718;2023-07-13T13:40:22;3.72;;;1.60;;
18239;SDS011;9244;50.828;4.718;2023-07-13T13:42:48;3.30;;;1.40;;
18239;SDS011;9244;50.828;4.718;2023-07-13T13:45:14;3.70;;;1.70;;
18239;SDS011;9244;50.828;4.718;2023-07-13T13:47:42;2.70;;;1.30;;
18239;SDS011;9244;50.828;4.718;2023-07-13T13:52:42;2.60;;;1.30;;
18239;SDS011;9244;50.828;4.718;2023-07-13T13:55:12;1.63;;;1.20;;
18239;SDS011;9244;50.828;4.718;2023-07-13T13:57:39;3.65;;;1.52;;
18239;SDS011;9244;50.828;4.718;2023-07-13T14:00:05;2.53;;;1.33;;
18239;SDS011;9244;50.828;4.718;2023-07-13T14:02:31;2.80;;;1.27;;
18239;SDS011;9244;50.828;4.718;2023-07-13T14:04:58;2.55;;;1.35;;
18239;SDS011;9244;50.828;4.718;2023-07-13T14:07:25;3.15;;;1.50;;
18239;SDS011;9244;50.828;4.718;2023-07-13T14:09:52;2.30;;;1.33;;
18239;SDS011;9244;50.828;4.718;2023-07-13T14:12:20;4.00;;;1.17;;
18239;SDS011;9244;50.828;4.718;2023-07-13T14:14:46;2.63;;;1.30;;
18239;SDS011;9244;50.828;4.718;2023-07-13T14:17:17;2.88;;;1.30;;
18239;SDS011;9244;50.828;4.718;2023-07-13T14:19:48;4.90;;;1.33;;
18239;SDS011;9244;50.828;4.718;2023-07-13T14:22:21;1.65;;;1.13;;
18239;SDS011;9244;50.828;4.718;2023-07-13T14:24:52;3.10;;;1.55;;
18239;SDS011;9244;50.828;4.718;2023-07-13T14:27:19;1.40;;;1.20;;
18239;SDS011;9244;50.828;4.718;2023-07-13T14:29:45;2.70;;;1.40;;
18239;SDS011;9244;50.828;4.718;2023-07-13T14:32:11;4.53;;;1.50;;
18239;SDS011;9244;50.828;4.718;2023-07-13T14:34:38;2.70;;;1.67;;
18239;SDS011;9244;50.828;4.718;2023-07-13T14:37:04;4.45;;;1.58;;
18239;SDS011;9244;50.828;4.718;2023-07-13T14:39:30;2.65;;;1.55;;
18239;SDS011;9244;50.828;4.718;2023-07-13T14:41:57;4.57;;;1.60;;
18239;SDS011;9244;50.828;4.718;2023-07-13T14:44:25;2.75;;;1.55;;
18239;SDS011;9244;50.828;4.718;2023-07-13T14:46:55;2.35;;;1.40;;
18239;SDS011;9244;50.828;4.718;2023-07-13T14:51:51;2.53;;;1.50;;
18239;SDS011;9244;50.828;4.718;2023-07-13T14:54:17;1.60;;;1.30;;
18239;SDS011;9244;50.828;4.718;2023-07-13T14:56:42;3.83;;;2.10;;
18239;SDS011;9244;50.828;4.718;2023-07-13T14:59:08;3.25;;;1.38;;
18239;SDS011;9244;50.828;4.718;2023-07-13T15:01:34;2.30;;;1.30;;
18239;SDS011;9244;50.828;4.718;2023-07-13T15:04:02;2.28;;;1.30;;
18239;SDS011;9244;50.828;4.718;2023-07-13T15:06:29;2.58;;;1.25;;
18239;SDS011;9244;50.828;4.718;2023-07-13T15:08:56;3.20;;;1.17;;
18239;SDS011;9244;50.828;4.718;2023-07-13T15:11:22;2.78;;;1.60;;
18239;SDS011;9244;50.828;4.718;2023-07-13T15:13:48;5.32;;;1.65;;
18239;SDS011;9244;50.828;4.718;2023-07-13T15:16:24;3.22;;;1.52;;
18239;SDS011;9244;50.828;4.718;2023-07-13T15:18:51;1.63;;;1.30;;
18239;SDS011;9244;50.828;4.718;2023-07-13T15:21:19;2.60;;;1.40;;
18239;SDS011;9244;50.828;4.718;2023-07-13T15:23:47;1.45;;;1.33;;
18239;SDS011;9244;50.828;4.718;2023-07-13T15:26:14;3.25;;;1.42;;
18239;SDS011;9244;50.828;4.718;2023-07-13T15:28:42;2.08;;;1.48;;
18239;SDS011;9244;50.828;4.718;2023-07-13T15:31:15;2.17;;;1.40;;
18239;SDS011;9244;50.828;4.718;2023-07-13T15:33:50;3.80;;;1.60;;
18239;SDS011;9244;50.828;4.718;2023-07-13T15:36:20;2.58;;;1.30;;
18239;SDS011;9244;50.828;4.718;2023-07-13T15:38:46;2.15;;;1.45;;
18239;SDS011;9244;50.828;4.718;2023-07-13T15:41:26;2.90;;;1.55;;
18239;SDS011;9244;50.828;4.718;2023-07-13T15:43:54;2.42;;;1.50;;
18239;SDS011;9244;50.828;4.718;2023-07-13T15:46:25;2.90;;;1.60;;
18239;SDS011;9244;50.828;4.718;2023-07-13T15:48:52;1.98;;;1.40;;
18239;SDS011;9244;50.828;4.718;2023-07-13T15:53:55;2.45;;;1.50;;
18239;SDS011;9244;50.828;4.718;2023-07-13T15:56:26;3.88;;;1.27;;
18239;SDS011;9244;50.828;4.718;2023-07-13T15:58:53;2.83;;;1.60;;
18239;SDS011;9244;50.828;4.718;2023-07-13T16:01:21;2.47;;;1.33;;